createdAt,value
2019-06-20T18:48:53.289Z,15.50
2019-06-20T18:49:52.991Z,16.20
2019-06-20T18:50:53.560Z,16.00
2019-06-20T18:51:53.465Z,15.30
2019-06-20T18:52:52.994Z,17.00
2019-06-20T18:53:52.857Z,15.60
2019-06-20T18:54:52.750Z,15.40
2019-06-20T18:55:52.662Z,16.40
2019-06-20T18:56:52.590Z,15.70
2019-06-20T18:57:52.526Z,16.00
2019-06-20T18:58:52.461Z,15.30
2019-06-20T18:59:52.429Z,16.20
2019-06-20T19:00:52.272Z,15.60
2019-06-20T19:01:52.242Z,16.00
2019-06-20T19:02:52.131Z,15.30
2019-06-20T19:03:52.300Z,16.20
2019-06-20T19:04:51.933Z,17.10
2019-06-20T19:05:51.872Z,15.30
2019-06-20T19:06:51.760Z,16.00
2019-06-20T19:07:51.675Z,16.70
2019-06-20T19:08:51.612Z,17.50
2019-06-20T19:09:51.502Z,16.40
2019-06-20T19:10:51.394Z,16.70
2019-06-20T19:11:51.294Z,16.40
2019-06-20T19:12:51.201Z,17.10
2019-06-20T19:13:51.135Z,17.20
2019-06-20T19:14:51.019Z,17.20
2019-06-20T19:15:50.910Z,16.80
2019-06-20T19:16:51.492Z,16.60
2019-06-20T19:17:50.704Z,16.70
2019-06-20T19:18:50.644Z,17.20
2019-06-20T19:19:50.519Z,16.70
2019-06-20T19:20:50.415Z,16.70
2019-06-20T19:21:50.363Z,16.50
2019-06-20T19:22:50.260Z,17.10
2019-06-20T19:23:50.213Z,16.50
2019-06-20T19:24:50.027Z,16.40
2019-06-20T19:25:50.029Z,16.20
2019-06-20T19:26:49.834Z,15.50
2019-06-20T19:27:49.777Z,16.00
2019-06-20T19:28:49.658Z,15.60
2019-06-20T19:29:49.895Z,15.40
2019-06-20T19:30:49.426Z,16.50
2019-06-20T19:31:49.347Z,16.10
2019-06-20T19:32:49.237Z,16.20
2019-06-20T19:33:51.952Z,16.70
2019-06-20T19:35:01.380Z,15.20
2019-06-20T19:35:49.936Z,15.30
2019-06-20T19:36:48.865Z,15.60
2019-06-20T19:37:48.728Z,15.80
2019-06-20T19:38:48.654Z,15.40
2019-06-20T19:39:48.620Z,15.30
2019-06-20T19:40:48.418Z,15.60
2019-06-20T19:41:48.328Z,14.30
2019-06-20T19:42:48.239Z,13.60
2019-06-20T19:43:48.148Z,13.40
2019-06-20T19:44:48.037Z,12.50
2019-06-20T19:45:47.919Z,12.30
2019-06-20T19:46:47.828Z,12.90
2019-06-20T19:47:47.776Z,11.80
2019-06-20T19:48:48.151Z,12.00
2019-06-20T19:49:47.578Z,12.00
2019-06-20T19:50:47.430Z,11.50
2019-06-20T19:51:47.360Z,11.20
2019-06-20T19:52:47.231Z,11.40
2019-06-20T19:53:48.118Z,10.40
2019-06-20T19:54:47.042Z,10.20
2019-06-20T19:55:47.012Z,10.20
2019-06-20T19:56:46.856Z,10.90
2019-06-20T19:57:46.729Z,10.50
2019-06-20T19:58:46.682Z,10.50
2019-06-20T19:59:46.519Z,10.90
2019-06-20T20:00:46.431Z,9.50
2019-06-20T20:07:23.065Z,9.20
2019-06-20T20:08:22.948Z,10.10
2019-06-20T20:09:22.883Z,10.10
2019-06-20T20:10:51.244Z,8.80
2019-06-20T20:11:51.264Z,8.50
2019-06-20T20:12:51.115Z,8.60
2019-06-20T20:13:51.091Z,8.40
2019-06-20T20:14:50.983Z,8.20
2019-06-20T20:15:50.871Z,8.10
2019-06-20T20:16:50.811Z,7.80
2019-06-20T20:17:50.683Z,8.30
2019-06-20T20:18:50.584Z,8.70
2019-06-20T20:19:50.524Z,8.00
2019-06-20T20:20:50.393Z,7.80
2019-06-20T20:21:50.303Z,8.20
2019-06-20T20:22:50.225Z,7.90
2019-06-20T20:23:50.096Z,8.60
2019-06-20T20:24:50.024Z,7.90
2019-06-20T20:25:49.905Z,8.70
2019-06-20T20:26:49.795Z,8.50
2019-06-20T20:27:49.708Z,8.60
2019-06-20T20:28:49.607Z,9.80
2019-06-20T20:29:49.525Z,8.80
2019-06-20T20:30:49.418Z,9.40
2019-06-20T20:31:49.296Z,9.10
2019-06-20T20:32:49.192Z,8.20
2019-06-20T20:33:49.087Z,9.00
2019-06-20T20:34:49.017Z,9.70
2019-06-20T20:35:48.887Z,9.10
2019-06-20T20:36:48.800Z,9.80
2019-06-20T20:37:48.727Z,10.00
2019-06-20T20:38:48.596Z,10.30
2019-06-20T20:39:48.678Z,10.50
2019-06-20T20:40:48.391Z,11.50
2019-06-20T20:41:48.287Z,11.60
2019-06-20T20:42:48.187Z,12.50
2019-06-20T20:43:48.079Z,13.40
2019-06-20T20:44:48.007Z,12.20
2019-06-20T20:45:47.868Z,14.00
2019-06-20T20:46:47.768Z,12.60
2019-06-20T20:47:47.681Z,12.40
2019-06-20T20:48:47.689Z,15.20
2019-06-20T20:49:47.490Z,16.30
2019-06-20T20:50:47.357Z,16.60
2019-06-20T20:51:47.260Z,17.10
2019-06-20T20:52:47.148Z,17.90
2019-06-20T20:53:47.069Z,17.40
2019-06-20T20:54:46.970Z,19.00
2019-06-20T20:55:46.841Z,19.10
2019-06-20T20:56:46.738Z,19.90
2019-06-20T20:57:46.649Z,20.20
2019-06-20T20:58:46.529Z,22.90
2019-06-20T20:59:46.451Z,24.00
2019-06-20T21:00:46.310Z,23.60
2019-06-20T21:01:46.230Z,23.20
2019-06-20T21:02:46.110Z,22.50
2019-06-20T21:03:46.191Z,22.10
2019-06-20T21:04:45.931Z,21.80
2019-06-20T21:05:51.323Z,19.70
2019-06-20T21:06:46.862Z,20.90
2019-06-20T21:07:45.601Z,20.40
2019-06-20T21:08:45.494Z,21.10
2019-06-20T21:09:45.458Z,21.10
2019-06-20T21:10:45.298Z,21.70
2019-06-20T21:11:45.183Z,21.30
2019-06-20T21:12:45.081Z,18.90
2019-06-20T21:13:44.995Z,19.10
2019-06-20T21:14:44.922Z,18.50
2019-06-20T21:15:44.792Z,18.60
2019-06-20T21:16:44.685Z,18.90
2019-06-20T21:17:44.616Z,18.70
2019-06-20T21:18:44.482Z,19.50
2019-06-20T21:19:44.433Z,20.90
2019-06-20T21:20:44.324Z,20.80
2019-06-20T21:21:44.193Z,20.00
2019-06-20T21:22:44.112Z,20.70
2019-06-20T21:23:43.997Z,20.80
2019-06-20T21:24:43.902Z,20.10
2019-06-20T21:25:43.805Z,20.10
2019-06-20T21:26:49.583Z,20.40
2019-06-20T21:27:44.575Z,21.70
2019-06-20T21:28:43.483Z,20.50
2019-06-20T21:29:43.394Z,20.60
2019-06-20T21:30:43.340Z,22.00
2019-06-20T21:31:43.296Z,20.80
2019-06-20T21:32:43.107Z,20.50
2019-06-20T21:33:43.015Z,20.80
2019-06-20T21:34:42.916Z,22.00
2019-06-20T21:35:42.937Z,22.90
2019-06-20T21:36:43.468Z,21.60
2019-06-20T21:37:42.736Z,21.50
2019-06-20T21:38:42.557Z,20.90
2019-06-20T21:39:42.467Z,21.80
2019-06-20T21:40:42.398Z,21.50
2019-06-20T21:41:42.276Z,20.80
2019-06-20T21:42:42.185Z,20.70
2019-06-20T21:43:42.086Z,19.80
2019-06-20T21:44:41.995Z,19.90
2019-06-20T21:45:41.928Z,19.90
2019-06-20T21:46:41.798Z,19.80
2019-06-20T21:47:41.716Z,18.30
2019-06-20T21:48:41.618Z,19.70
2019-06-20T21:49:41.530Z,18.50
2019-06-20T21:50:41.458Z,18.70
2019-06-20T21:51:44.504Z,17.30
2019-06-20T21:52:41.438Z,17.80
2019-06-20T21:53:41.157Z,18.20
2019-06-20T21:54:41.069Z,18.50
2019-06-20T21:55:41.018Z,17.40
2019-06-20T21:56:40.898Z,17.90
2019-06-20T21:57:40.856Z,17.40
2019-06-20T21:58:40.864Z,16.80
2019-06-20T21:59:40.643Z,17.80
2019-06-20T22:00:40.585Z,16.90
2019-06-20T22:01:40.510Z,17.10
2019-06-20T22:02:40.386Z,18.00
2019-06-20T22:03:40.489Z,17.00
2019-06-20T22:04:53.696Z,17.40
2019-06-20T22:05:41.150Z,16.70
2019-06-20T22:06:40.229Z,16.40
2019-06-20T22:07:39.959Z,17.30
2019-06-20T22:08:39.871Z,16.50
2019-06-20T22:09:39.782Z,16.80
2019-06-20T22:10:39.763Z,16.90
2019-06-20T22:11:39.610Z,17.80
2019-06-20T22:12:39.519Z,17.70
2019-06-20T22:13:39.431Z,17.20
2019-06-20T22:14:39.410Z,16.50
2019-06-20T22:15:39.290Z,17.10
2019-06-20T22:16:39.173Z,16.70
2019-06-20T22:17:39.082Z,16.90
2019-06-20T22:18:39.004Z,16.40
2019-06-20T22:19:38.912Z,17.10
2019-06-20T22:20:38.860Z,16.90
2019-06-20T22:21:38.882Z,17.50
2019-06-20T22:22:38.673Z,16.90
2019-06-20T22:23:38.691Z,16.30
2019-06-20T22:24:38.703Z,16.00
2019-06-20T22:25:38.453Z,16.60
2019-06-20T22:26:38.352Z,15.90
2019-06-20T22:27:38.272Z,16.00
2019-06-20T22:28:38.188Z,16.10
2019-06-20T22:29:38.133Z,16.00
2019-06-20T22:30:38.036Z,15.30
2019-06-20T22:31:37.921Z,16.00
2019-06-20T22:32:37.887Z,16.40
2019-06-20T22:33:37.733Z,16.00
2019-06-20T22:34:37.640Z,15.40
2019-06-20T22:35:37.595Z,15.70
2019-06-20T22:36:40.607Z,14.70
2019-06-20T22:37:37.643Z,14.80
2019-06-20T22:38:37.504Z,15.50
2019-06-20T22:39:37.405Z,15.60
2019-06-20T22:40:37.292Z,15.60
2019-06-20T22:41:37.164Z,15.70
2019-06-20T22:42:36.937Z,15.60
2019-06-20T22:43:37.010Z,14.90
2019-06-20T22:44:36.723Z,16.00
2019-06-20T22:45:36.714Z,15.50
2019-06-20T22:46:36.574Z,15.40
2019-06-20T22:47:36.445Z,15.00
2019-06-20T22:48:36.365Z,15.60
2019-06-20T22:53:19.419Z,15.50
2019-06-20T22:54:19.402Z,15.40
2019-06-20T22:55:19.387Z,15.40
2019-06-20T22:56:19.407Z,14.40
2019-06-20T22:57:19.368Z,15.00
2019-06-20T22:58:19.357Z,15.10
2019-06-20T22:59:19.327Z,15.50
2019-06-20T23:00:19.351Z,15.40
2019-06-20T23:01:19.332Z,15.10
2019-06-20T23:02:19.293Z,15.30
2019-06-20T23:03:19.339Z,15.00
2019-06-20T23:04:19.280Z,14.50
2019-06-20T23:05:19.369Z,14.00
2019-06-20T23:06:19.240Z,14.70
2019-06-20T23:07:19.209Z,14.60
2019-06-20T23:08:19.206Z,14.70
2019-06-20T23:09:19.190Z,13.70
2019-06-20T23:10:19.162Z,14.10
2019-06-20T23:11:19.169Z,14.80
2019-06-20T23:12:19.149Z,13.90
2019-06-20T23:13:19.115Z,14.40
2019-06-20T23:14:19.089Z,14.70
2019-06-20T23:15:19.076Z,13.80
2019-06-20T23:16:19.080Z,14.30
2019-06-20T23:17:19.042Z,13.40
2019-06-20T23:18:19.023Z,14.30
2019-06-20T23:19:19.020Z,13.50
2019-06-20T23:20:18.996Z,13.30
2019-06-20T23:21:19.012Z,14.20
2019-06-20T23:22:18.978Z,12.90
2019-06-20T23:23:18.961Z,13.00
2019-06-20T23:24:18.941Z,13.20
2019-06-20T23:25:18.931Z,12.40
2019-06-20T23:26:18.954Z,13.00
2019-06-20T23:27:18.913Z,14.00
2019-06-20T23:28:18.902Z,13.40
2019-06-20T23:29:18.882Z,12.80
2019-06-20T23:30:18.875Z,13.50
2019-06-20T23:31:18.902Z,13.10
2019-06-20T23:32:18.853Z,12.80
2019-06-20T23:33:18.843Z,13.00
2019-06-20T23:34:18.849Z,13.00
2019-06-20T23:35:18.821Z,12.70
2019-06-20T23:36:18.814Z,13.00
2019-06-20T23:37:18.831Z,13.00
2019-06-20T23:38:18.793Z,12.50
2019-06-20T23:39:18.783Z,12.40
2019-06-20T23:40:18.783Z,12.90
2019-06-20T23:41:18.773Z,12.30
2019-06-20T23:42:18.784Z,11.40
2019-06-20T23:43:18.752Z,12.90
2019-06-20T23:44:18.748Z,12.30
2019-06-20T23:45:18.725Z,12.10
2019-06-20T23:46:18.715Z,12.40
2019-06-20T23:47:18.734Z,12.80
2019-06-20T23:48:18.703Z,11.80
2019-06-20T23:49:18.685Z,11.80
2019-06-20T23:50:18.684Z,11.60
2019-06-20T23:51:25.227Z,11.80
2019-06-20T23:52:19.695Z,12.20
2019-06-20T23:53:18.659Z,12.50
2019-06-20T23:54:18.655Z,12.10
2019-06-20T23:55:18.646Z,11.30
2019-06-20T23:56:18.628Z,11.40
2019-06-20T23:57:18.655Z,12.30
2019-06-20T23:58:18.615Z,11.00
2019-06-20T23:59:18.625Z,11.20
